createdAt,value
2022-12-31T00:02:18.202Z,15.93
2022-12-31T00:05:20.673Z,15.52
2022-12-31T00:08:23.304Z,16.53
2022-12-31T00:11:28.429Z,16.38
2022-12-31T00:14:36.029Z,14.60
2022-12-31T00:17:38.379Z,12.57
2022-12-31T00:20:42.190Z,14.77
2022-12-31T00:23:45.044Z,12.97
2022-12-31T00:26:48.032Z,13.85
2022-12-31T00:29:50.461Z,13.27
2022-12-31T00:32:53.243Z,15.27
2022-12-31T00:35:55.761Z,14.65
2022-12-31T00:39:00.348Z,15.20
2022-12-31T00:42:02.777Z,15.02
2022-12-31T00:45:05.042Z,14.00
2022-12-31T00:48:09.839Z,13.57
2022-12-31T00:51:15.296Z,14.25
2022-12-31T00:54:18.131Z,14.13
2022-12-31T00:57:20.810Z,13.73
2022-12-31T01:00:23.188Z,14.63
2022-12-31T01:03:26.065Z,12.80
2022-12-31T01:06:28.735Z,13.70
2022-12-31T01:09:31.153Z,14.27
2022-12-31T01:12:33.338Z,14.13
2022-12-31T01:15:37.215Z,13.32
2022-12-31T01:18:39.696Z,13.77
2022-12-31T01:21:43.994Z,12.20
2022-12-31T01:24:46.257Z,15.93
2022-12-31T01:27:48.821Z,17.05
2022-12-31T01:30:51.116Z,14.75
2022-12-31T01:33:53.436Z,15.95
2022-12-31T01:36:58.137Z,15.70
2022-12-31T01:40:00.500Z,15.00
2022-12-31T01:43:03.374Z,16.52
2022-12-31T01:46:06.078Z,17.20
2022-12-31T01:49:31.237Z,15.40
2022-12-31T01:52:41.460Z,16.67
2022-12-31T01:55:56.906Z,17.17
2022-12-31T01:59:00.093Z,16.65
2022-12-31T02:02:03.013Z,17.02
2022-12-31T02:05:14.317Z,16.23
2022-12-31T02:08:16.430Z,16.17
2022-12-31T02:11:28.308Z,17.13
2022-12-31T02:14:33.979Z,14.57
2022-12-31T02:17:53.432Z,16.60
2022-12-31T02:21:11.145Z,15.27
2022-12-31T02:24:50.503Z,15.05
2022-12-31T02:28:30.260Z,16.43
2022-12-31T02:31:43.444Z,14.95
2022-12-31T02:34:51.854Z,16.33
2022-12-31T02:37:59.149Z,14.88
2022-12-31T02:41:02.407Z,14.23
2022-12-31T02:44:29.522Z,15.53
2022-12-31T02:47:47.238Z,15.25
2022-12-31T02:51:00.544Z,14.73
2022-12-31T02:54:17.984Z,13.70
2022-12-31T02:57:52.400Z,15.48
2022-12-31T03:01:17.095Z,14.30
2022-12-31T03:04:33.755Z,15.88
2022-12-31T03:07:35.767Z,17.15
2022-12-31T03:10:38.104Z,16.98
2022-12-31T03:13:40.430Z,16.88
2022-12-31T03:16:42.761Z,16.20
2022-12-31T03:20:03.301Z,16.60
2022-12-31T03:23:08.715Z,16.95
2022-12-31T03:26:12.526Z,16.45
2022-12-31T03:29:14.951Z,15.82
2022-12-31T03:32:17.083Z,15.23
2022-12-31T03:35:21.239Z,16.25
2022-12-31T03:38:23.460Z,17.13
2022-12-31T03:41:25.416Z,16.02
2022-12-31T03:44:27.482Z,16.35
2022-12-31T03:47:29.842Z,17.03
2022-12-31T03:50:32.652Z,18.40
2022-12-31T03:53:35.791Z,18.58
2022-12-31T03:56:38.198Z,18.05
2022-12-31T03:59:40.308Z,16.58
2022-12-31T04:02:42.573Z,18.17
2022-12-31T04:05:44.663Z,17.60
2022-12-31T04:08:46.603Z,17.45
2022-12-31T04:11:48.724Z,17.55
2022-12-31T04:14:51.422Z,16.10
2022-12-31T04:17:53.667Z,17.97
2022-12-31T04:21:01.986Z,17.33
2022-12-31T04:24:04.423Z,17.48
2022-12-31T04:27:08.287Z,17.33
2022-12-31T04:30:12.463Z,17.33
2022-12-31T04:33:14.747Z,15.93
2022-12-31T04:36:17.030Z,17.52
2022-12-31T04:39:19.232Z,17.25
2022-12-31T04:42:21.352Z,16.95
2022-12-31T04:45:23.516Z,15.80
2022-12-31T04:48:25.456Z,16.77
2022-12-31T04:51:28.761Z,18.05
2022-12-31T04:54:30.777Z,18.13
2022-12-31T04:57:33.040Z,17.02
2022-12-31T05:00:35.386Z,18.45
2022-12-31T05:03:43.692Z,18.87
2022-12-31T05:06:45.827Z,18.58
2022-12-31T05:09:47.898Z,17.55
2022-12-31T05:12:50.605Z,18.15
2022-12-31T05:15:53.041Z,18.20
2022-12-31T05:18:55.189Z,18.27
2022-12-31T05:22:16.002Z,17.38
2022-12-31T05:25:18.203Z,18.35
2022-12-31T05:28:20.676Z,18.35
2022-12-31T05:31:22.975Z,16.48
2022-12-31T05:34:25.089Z,18.03
2022-12-31T05:37:29.904Z,17.52
2022-12-31T05:40:32.199Z,19.15
2022-12-31T05:43:35.015Z,17.02
2022-12-31T05:46:37.072Z,18.88
2022-12-31T05:49:39.743Z,18.73
2022-12-31T05:52:47.446Z,18.65
2022-12-31T05:55:50.911Z,19.67
2022-12-31T05:58:54.690Z,18.58
2022-12-31T06:01:57.818Z,20.42
2022-12-31T06:04:59.919Z,20.53
2022-12-31T06:08:02.176Z,19.30
2022-12-31T06:11:04.343Z,20.35
2022-12-31T06:14:06.884Z,20.30
2022-12-31T06:17:09.151Z,21.17
2022-12-31T06:20:13.237Z,19.57
2022-12-31T06:23:15.502Z,20.13
2022-12-31T06:26:18.202Z,19.92
2022-12-31T06:29:20.828Z,21.25
2022-12-31T06:32:23.307Z,20.15
2022-12-31T06:35:25.448Z,18.93
2022-12-31T06:38:29.953Z,20.23
2022-12-31T06:41:32.420Z,19.25
2022-12-31T06:44:34.774Z,19.67
2022-12-31T06:47:37.036Z,18.83
2022-12-31T06:50:40.720Z,19.40
2022-12-31T06:53:43.104Z,21.95
2022-12-31T06:56:45.655Z,18.92
2022-12-31T06:59:48.103Z,20.33
2022-12-31T07:03:16.326Z,18.55
2022-12-31T07:06:46.236Z,17.53
2022-12-31T07:10:09.580Z,17.52
2022-12-31T07:13:26.876Z,18.58
2022-12-31T07:16:40.486Z,19.10
2022-12-31T07:19:58.540Z,18.88
2022-12-31T07:23:00.874Z,18.63
2022-12-31T07:26:18.866Z,19.25
2022-12-31T07:29:52.867Z,18.80
2022-12-31T07:32:58.065Z,20.23
2022-12-31T07:36:50.985Z,20.23
2022-12-31T07:40:20.890Z,19.37
2022-12-31T07:43:40.956Z,18.33
2022-12-31T07:46:56.882Z,18.45
2022-12-31T07:49:59.675Z,18.83
2022-12-31T07:53:02.246Z,19.15
2022-12-31T07:56:07.644Z,21.17
2022-12-31T07:59:28.730Z,19.75
2022-12-31T08:02:42.925Z,20.60
2022-12-31T08:06:10.216Z,20.38
2022-12-31T08:09:44.612Z,20.35
2022-12-31T08:12:50.455Z,19.37
2022-12-31T08:15:53.023Z,17.63
2022-12-31T08:18:55.574Z,22.42
2022-12-31T08:22:14.408Z,20.20
2022-12-31T08:25:46.006Z,19.17
2022-12-31T08:29:11.484Z,18.47
2022-12-31T08:32:31.331Z,19.08
2022-12-31T08:35:51.542Z,19.23
2022-12-31T08:39:28.702Z,21.60
2022-12-31T08:42:50.481Z,20.02
2022-12-31T08:45:54.515Z,19.77
2022-12-31T08:48:58.549Z,19.58
2022-12-31T08:52:02.600Z,22.45
2022-12-31T08:55:05.843Z,19.40
2022-12-31T08:58:29.830Z,19.45
2022-12-31T09:01:44.105Z,21.47
2022-12-31T09:05:12.966Z,21.17
2022-12-31T09:08:24.343Z,21.17
2022-12-31T09:11:46.637Z,19.88
2022-12-31T09:14:59.651Z,19.17
2022-12-31T09:18:02.723Z,20.30
2022-12-31T09:21:05.245Z,20.65
2022-12-31T09:24:10.514Z,20.48
2022-12-31T09:27:39.310Z,19.63
2022-12-31T09:31:22.711Z,23.80
2022-12-31T09:35:07.708Z,19.93
2022-12-31T09:38:17.837Z,19.20
2022-12-31T09:41:57.247Z,22.60
2022-12-31T09:45:41.540Z,19.80
2022-12-31T09:48:57.014Z,20.10
2022-12-31T09:52:11.652Z,20.73
2022-12-31T09:55:43.178Z,21.58
2022-12-31T09:58:51.298Z,22.55
2022-12-31T10:02:03.711Z,22.13
2022-12-31T10:05:24.666Z,20.90
2022-12-31T10:08:54.944Z,21.00
2022-12-31T10:12:19.392Z,24.33
2022-12-31T10:15:35.889Z,23.02
2022-12-31T10:18:56.048Z,18.90
2022-12-31T10:22:22.247Z,21.80
2022-12-31T10:25:38.587Z,22.20
2022-12-31T10:29:14.801Z,20.10
2022-12-31T10:32:18.958Z,23.05
2022-12-31T10:35:28.888Z,23.83
2022-12-31T10:38:31.419Z,25.88
2022-12-31T10:41:54.809Z,24.30
2022-12-31T10:44:56.816Z,23.77
2022-12-31T10:48:24.038Z,24.40
2022-12-31T10:52:00.751Z,23.23
2022-12-31T10:55:24.451Z,23.60
2022-12-31T10:58:49.024Z,23.37
2022-12-31T11:01:57.722Z,25.35
2022-12-31T11:05:29.013Z,24.83
2022-12-31T11:08:53.065Z,25.35
2022-12-31T11:12:32.813Z,24.13
2022-12-31T11:16:03.060Z,22.20
2022-12-31T11:19:26.392Z,26.08
2022-12-31T11:22:52.183Z,25.13
2022-12-31T11:26:16.241Z,26.20
2022-12-31T11:29:41.951Z,27.52
2022-12-31T11:33:06.334Z,26.00
2022-12-31T11:36:40.216Z,25.73
2022-12-31T11:40:10.157Z,27.52
2022-12-31T11:43:44.108Z,25.42
2022-12-31T11:46:58.280Z,23.25
2022-12-31T11:50:26.149Z,23.83
2022-12-31T11:53:43.541Z,21.55
2022-12-31T11:56:53.789Z,25.52
2022-12-31T12:00:06.472Z,23.05
2022-12-31T12:03:12.756Z,23.83
2022-12-31T12:06:18.815Z,24.73
2022-12-31T12:09:28.660Z,25.45
2022-12-31T12:12:41.730Z,25.73
2022-12-31T12:15:48.352Z,26.38
2022-12-31T12:19:03.910Z,31.83
2022-12-31T12:22:20.944Z,26.43
2022-12-31T12:25:27.360Z,25.95
2022-12-31T12:28:44.328Z,27.92
2022-12-31T12:32:05.101Z,26.63
2022-12-31T12:35:16.127Z,28.25
2022-12-31T12:38:24.163Z,26.27
2022-12-31T12:41:27.827Z,25.45
2022-12-31T12:44:30.812Z,28.00
2022-12-31T12:47:34.469Z,26.50
2022-12-31T12:50:45.299Z,26.88
2022-12-31T12:54:19.923Z,24.27
2022-12-31T12:57:34.361Z,25.83
2022-12-31T13:00:58.989Z,25.30
2022-12-31T13:04:34.375Z,25.73
2022-12-31T13:07:50.354Z,26.60
2022-12-31T13:10:58.749Z,25.47
2022-12-31T13:14:04.164Z,26.30
2022-12-31T13:17:28.001Z,26.60
2022-12-31T13:21:24.454Z,26.55
2022-12-31T13:24:45.000Z,28.00
2022-12-31T13:27:50.498Z,32.37
2022-12-31T13:31:06.985Z,34.40
2022-12-31T13:34:30.252Z,31.05
2022-12-31T13:37:39.778Z,25.38
2022-12-31T13:40:57.294Z,23.90
2022-12-31T13:44:18.174Z,23.50
2022-12-31T13:47:37.423Z,24.23
2022-12-31T13:50:53.186Z,26.05
2022-12-31T13:54:03.783Z,26.20
2022-12-31T13:57:33.939Z,24.17
2022-12-31T14:01:12.033Z,24.23
2022-12-31T14:04:35.822Z,24.52
2022-12-31T14:07:50.609Z,26.45
2022-12-31T14:11:20.883Z,25.27
2022-12-31T14:14:32.024Z,27.70
2022-12-31T14:17:46.141Z,23.97
2022-12-31T14:20:48.410Z,26.10
2022-12-31T14:24:07.134Z,24.50
2022-12-31T14:27:18.030Z,27.38
2022-12-31T14:30:23.263Z,25.15
2022-12-31T14:33:37.474Z,24.07
2022-12-31T14:37:16.580Z,21.50
2022-12-31T14:40:18.793Z,22.83
2022-12-31T14:43:39.793Z,24.17
2022-12-31T14:47:23.323Z,26.67
2022-12-31T14:50:28.245Z,27.77
2022-12-31T14:53:33.665Z,25.15
2022-12-31T14:56:46.825Z,24.30
2022-12-31T14:59:58.104Z,25.00
2022-12-31T15:03:05.464Z,23.55
2022-12-31T15:06:23.319Z,25.67
2022-12-31T15:09:53.657Z,26.95
2022-12-31T15:13:06.711Z,27.35
2022-12-31T15:16:27.006Z,22.55
2022-12-31T15:20:00.496Z,21.73
2022-12-31T15:23:02.805Z,20.03
2022-12-31T15:26:06.386Z,20.27
2022-12-31T15:29:24.500Z,21.25
2022-12-31T15:32:39.037Z,20.67
2022-12-31T15:36:23.555Z,25.92
2022-12-31T15:39:45.993Z,29.20
2022-12-31T15:42:55.207Z,26.30
2022-12-31T15:45:58.236Z,25.88
2022-12-31T15:49:15.428Z,25.88
2022-12-31T15:52:26.625Z,24.27
2022-12-31T15:55:46.533Z,25.30
2022-12-31T15:58:58.043Z,28.42
2022-12-31T16:02:00.357Z,33.03
2022-12-31T16:05:04.296Z,31.85
2022-12-31T16:08:06.813Z,26.67
2022-12-31T16:11:10.149Z,25.53
2022-12-31T16:14:26.006Z,28.05
2022-12-31T16:17:39.860Z,27.42
2022-12-31T16:20:44.944Z,23.98
2022-12-31T16:23:52.423Z,26.10
2022-12-31T16:26:59.259Z,39.33
2022-12-31T16:30:05.504Z,31.60
2022-12-31T16:33:15.254Z,25.42
2022-12-31T16:36:23.992Z,24.67
2022-12-31T16:39:34.913Z,25.45
2022-12-31T16:42:44.306Z,28.73
2022-12-31T16:45:47.125Z,34.42
2022-12-31T16:49:04.194Z,45.78
2022-12-31T16:52:16.887Z,42.03
2022-12-31T16:55:27.056Z,29.73
2022-12-31T16:58:40.365Z,26.70
2022-12-31T17:01:42.877Z,27.40
2022-12-31T17:04:55.569Z,28.02
2022-12-31T17:07:58.857Z,27.63
2022-12-31T17:11:03.702Z,29.23
2022-12-31T17:14:08.008Z,26.77
2022-12-31T17:17:25.194Z,28.08
2022-12-31T17:20:31.286Z,26.73
2022-12-31T17:23:35.892Z,27.58
2022-12-31T17:26:39.038Z,27.73
2022-12-31T17:29:41.287Z,27.13
2022-12-31T17:32:45.604Z,27.80
2022-12-31T17:35:49.400Z,25.85
2022-12-31T17:38:51.649Z,25.80
2022-12-31T17:41:58.110Z,37.42
2022-12-31T17:45:15.893Z,29.00
2022-12-31T17:48:19.888Z,27.73
2022-12-31T17:51:24.336Z,29.58
2022-12-31T17:54:27.014Z,31.13
2022-12-31T17:57:31.186Z,33.58
2022-12-31T18:00:37.237Z,29.53
2022-12-31T18:03:39.567Z,28.90
2022-12-31T18:06:42.328Z,30.90
2022-12-31T18:09:44.793Z,30.92
2022-12-31T18:12:50.665Z,33.13
2022-12-31T18:15:56.217Z,30.63
2022-12-31T18:19:00.689Z,34.38
2022-12-31T18:22:04.193Z,37.83
2022-12-31T18:25:08.055Z,35.30
2022-12-31T18:28:11.944Z,36.53
2022-12-31T18:31:22.247Z,33.93
2022-12-31T18:34:24.422Z,37.88
2022-12-31T18:37:29.246Z,38.30
2022-12-31T18:40:33.195Z,35.67
2022-12-31T18:43:35.833Z,37.75
2022-12-31T18:46:37.872Z,37.37
2022-12-31T18:49:40.726Z,38.45
2022-12-31T18:52:43.861Z,37.75
2022-12-31T18:55:52.652Z,39.35
2022-12-31T18:58:55.068Z,37.15
2022-12-31T19:01:57.560Z,36.27
2022-12-31T19:05:00.195Z,41.15
2022-12-31T19:08:02.343Z,39.55
2022-12-31T19:11:04.733Z,40.58
2022-12-31T19:14:16.312Z,42.40
2022-12-31T19:17:18.781Z,40.33
2022-12-31T19:20:21.190Z,40.42
2022-12-31T19:23:23.252Z,40.08
2022-12-31T19:26:25.536Z,49.38
2022-12-31T19:29:29.499Z,43.85
2022-12-31T19:32:31.551Z,60.67
2022-12-31T19:35:34.250Z,60.60
2022-12-31T19:38:36.576Z,47.55
2022-12-31T19:41:42.512Z,95.03
2022-12-31T19:44:44.782Z,50.72
2022-12-31T19:47:47.536Z,49.73
2022-12-31T19:50:52.505Z,71.75
2022-12-31T19:53:54.843Z,54.67
2022-12-31T19:56:57.183Z,52.63
2022-12-31T19:59:59.650Z,60.72
2022-12-31T20:03:02.410Z,54.87
2022-12-31T20:06:09.176Z,53.55
2022-12-31T20:09:12.143Z,54.80
2022-12-31T20:12:15.009Z,59.55
2022-12-31T20:15:17.299Z,54.25
2022-12-31T20:18:21.779Z,49.53
2022-12-31T20:21:27.993Z,49.45
2022-12-31T20:24:30.694Z,56.45
2022-12-31T20:27:33.662Z,56.72
2022-12-31T20:30:38.937Z,61.83
2022-12-31T20:33:42.285Z,59.37
2022-12-31T20:36:44.627Z,56.92
2022-12-31T20:39:47.099Z,55.88
2022-12-31T20:42:49.535Z,54.17
2022-12-31T20:45:51.741Z,54.63
2022-12-31T20:48:57.234Z,51.73
2022-12-31T20:51:59.385Z,54.28
2022-12-31T20:55:01.717Z,54.65
2022-12-31T20:58:05.141Z,51.63
2022-12-31T21:01:09.115Z,53.97
2022-12-31T21:04:11.473Z,61.93
2022-12-31T21:07:13.940Z,55.30
2022-12-31T21:10:17.126Z,57.80
2022-12-31T21:13:23.121Z,57.83
2022-12-31T21:16:26.256Z,52.13
2022-12-31T21:19:28.463Z,55.37
2022-12-31T21:22:30.625Z,55.72
2022-12-31T21:25:33.817Z,59.25
2022-12-31T21:28:36.542Z,54.55
2022-12-31T21:31:38.959Z,54.08
2022-12-31T21:34:42.452Z,53.80
2022-12-31T21:37:57.891Z,54.00
2022-12-31T21:41:03.595Z,61.78
2022-12-31T21:44:06.040Z,54.88
2022-12-31T21:47:35.652Z,58.92
2022-12-31T21:50:39.469Z,60.00
2022-12-31T21:53:41.564Z,61.20
2022-12-31T21:56:43.417Z,60.03
2022-12-31T22:00:39.856Z,54.70
2022-12-31T22:03:27.961Z,56.78
2022-12-31T22:06:30.573Z,50.60
2022-12-31T22:09:32.980Z,51.72
2022-12-31T22:12:35.352Z,56.00
2022-12-31T22:15:47.873Z,53.83
2022-12-31T22:18:50.706Z,56.10
2022-12-31T22:21:52.970Z,49.83
2022-12-31T22:24:54.909Z,50.45
2022-12-31T22:28:28.032Z,50.78
2022-12-31T22:31:22.252Z,52.78
2022-12-31T22:34:24.582Z,67.43
2022-12-31T22:40:48.469Z,69.63
2022-12-31T22:44:02.301Z,62.88
2022-12-31T22:47:05.562Z,58.13
2022-12-31T22:50:08.120Z,60.58
2022-12-31T22:53:10.354Z,60.20
2022-12-31T22:56:14.785Z,61.70
2022-12-31T22:59:17.004Z,63.97
2022-12-31T23:02:19.184Z,60.90
2022-12-31T23:05:24.084Z,58.42
2022-12-31T23:08:26.549Z,78.93
2022-12-31T23:11:29.856Z,93.10
2022-12-31T23:14:50.838Z,86.65
2022-12-31T23:18:11.606Z,89.65
2022-12-31T23:21:32.913Z,86.65
2022-12-31T23:24:36.354Z,80.40
2022-12-31T23:27:38.841Z,120.97
2022-12-31T23:30:42.837Z,100.82
2022-12-31T23:33:44.859Z,94.93
2022-12-31T23:36:47.150Z,99.25
2022-12-31T23:39:49.298Z,104.00
2022-12-31T23:42:51.562Z,108.50
2022-12-31T23:45:53.937Z,134.57
2022-12-31T23:48:56.062Z,148.43
2022-12-31T23:51:58.308Z,133.55
2022-12-31T23:55:00.450Z,143.73
2022-12-31T23:58:02.527Z,144.93
